sensor_id;sensor_type;location;lat;lon;timestamp;P1;durP1;ratioP1;P2;durP2;ratioP2
10440;SDS011;5268;49.346;9.522;2022-10-30T04:22:21;7.18;;;5.28;;
10440;SDS011;5268;49.346;9.522;2022-10-30T04:27:23;7.85;;;5.97;;
10440;SDS011;5268;49.346;9.522;2022-10-30T04:32:25;7.88;;;5.57;;
10440;SDS011;5268;49.346;9.522;2022-10-30T04:37:29;8.32;;;5.97;;
10440;SDS011;5268;49.346;9.522;2022-10-30T04:42:31;8.00;;;5.72;;
10440;SDS011;5268;49.346;9.522;2022-10-30T04:47:34;7.50;;;5.18;;
10440;SDS011;5268;49.346;9.522;2022-10-30T04:52:37;6.82;;;4.97;;
10440;SDS011;5268;49.346;9.522;2022-10-30T04:57:39;6.13;;;5.10;;
10440;SDS011;5268;49.346;9.522;2022-10-30T05:02:41;8.57;;;5.30;;
10440;SDS011;5268;49.346;9.522;2022-10-30T05:07:45;9.27;;;5.18;;
10440;SDS011;5268;49.346;9.522;2022-10-30T05:12:47;6.60;;;5.45;;
10440;SDS011;5268;49.346;9.522;2022-10-30T05:17:51;6.53;;;5.25;;
10440;SDS011;5268;49.346;9.522;2022-10-30T05:22:55;5.93;;;5.10;;
10440;SDS011;5268;49.346;9.522;2022-10-30T05:27:57;20.33;;;15.80;;
10440;SDS011;5268;49.346;9.522;2022-10-30T05:33:00;10.63;;;7.50;;
10440;SDS011;5268;49.346;9.522;2022-10-30T05:38:05;8.98;;;6.35;;
10440;SDS011;5268;49.346;9.522;2022-10-30T05:43:07;8.13;;;5.72;;
10440;SDS011;5268;49.346;9.522;2022-10-30T05:48:09;7.72;;;5.60;;
10440;SDS011;5268;49.346;9.522;2022-10-30T05:53:12;6.63;;;5.45;;
10440;SDS011;5268;49.346;9.522;2022-10-30T05:58:14;7.90;;;5.00;;
10440;SDS011;5268;49.346;9.522;2022-10-30T06:03:17;6.30;;;5.10;;
10440;SDS011;5268;49.346;9.522;2022-10-30T06:08:20;6.28;;;5.13;;
10440;SDS011;5268;49.346;9.522;2022-10-30T06:13:22;8.02;;;5.18;;
10440;SDS011;5268;49.346;9.522;2022-10-30T06:18:24;7.13;;;4.47;;
10440;SDS011;5268;49.346;9.522;2022-10-30T06:23:27;20.30;;;13.10;;
10440;SDS011;5268;49.346;9.522;2022-10-30T06:28:29;23.17;;;17.23;;
10440;SDS011;5268;49.346;9.522;2022-10-30T06:33:31;16.45;;;11.50;;
10440;SDS011;5268;49.346;9.522;2022-10-30T06:38:34;10.23;;;7.45;;
10440;SDS011;5268;49.346;9.522;2022-10-30T06:43:36;7.80;;;6.78;;
10440;SDS011;5268;49.346;9.522;2022-10-30T06:48:38;7.85;;;6.55;;
10440;SDS011;5268;49.346;9.522;2022-10-30T06:53:42;7.30;;;6.40;;
10440;SDS011;5268;49.346;9.522;2022-10-30T06:58:45;9.00;;;6.80;;
10440;SDS011;5268;49.346;9.522;2022-10-30T07:03:46;8.65;;;6.20;;
10440;SDS011;5268;49.346;9.522;2022-10-30T07:08:50;8.18;;;5.93;;
10440;SDS011;5268;49.346;9.522;2022-10-30T07:13:52;10.93;;;6.18;;
10440;SDS011;5268;49.346;9.522;2022-10-30T07:18:54;9.48;;;6.30;;
10440;SDS011;5268;49.346;9.522;2022-10-30T07:23:57;11.75;;;6.97;;
10440;SDS011;5268;49.346;9.522;2022-10-30T07:28:59;13.18;;;11.73;;
10440;SDS011;5268;49.346;9.522;2022-10-30T07:34:03;14.57;;;10.35;;
10440;SDS011;5268;49.346;9.522;2022-10-30T07:39:07;7.32;;;6.40;;
10440;SDS011;5268;49.346;9.522;2022-10-30T07:44:09;6.13;;;5.55;;
10440;SDS011;5268;49.346;9.522;2022-10-30T07:49:10;7.25;;;6.50;;
10440;SDS011;5268;49.346;9.522;2022-10-30T07:54:14;8.10;;;5.70;;
10440;SDS011;5268;49.346;9.522;2022-10-30T07:59:16;6.97;;;6.38;;
10440;SDS011;5268;49.346;9.522;2022-10-30T08:04:18;7.03;;;6.32;;
10440;SDS011;5268;49.346;9.522;2022-10-30T08:09:21;6.03;;;5.22;;
10440;SDS011;5268;49.346;9.522;2022-10-30T08:14:23;6.00;;;4.80;;
10440;SDS011;5268;49.346;9.522;2022-10-30T08:19:25;5.70;;;5.07;;
10440;SDS011;5268;49.346;9.522;2022-10-30T08:24:29;5.70;;;5.20;;
10440;SDS011;5268;49.346;9.522;2022-10-30T08:29:31;6.22;;;5.45;;
10440;SDS011;5268;49.346;9.522;2022-10-30T08:34:33;5.85;;;4.65;;
10440;SDS011;5268;49.346;9.522;2022-10-30T08:39:37;7.15;;;4.85;;
10440;SDS011;5268;49.346;9.522;2022-10-30T08:44:39;8.05;;;5.28;;
10440;SDS011;5268;49.346;9.522;2022-10-30T08:49:41;7.38;;;5.40;;
10440;SDS011;5268;49.346;9.522;2022-10-30T08:54:44;6.63;;;4.53;;
10440;SDS011;5268;49.346;9.522;2022-10-30T08:59:47;8.38;;;5.05;;
10440;SDS011;5268;49.346;9.522;2022-10-30T09:04:49;7.32;;;5.55;;
10440;SDS011;5268;49.346;9.522;2022-10-30T09:09:52;7.88;;;4.45;;
10440;SDS011;5268;49.346;9.522;2022-10-30T09:14:54;7.50;;;4.95;;
10440;SDS011;5268;49.346;9.522;2022-10-30T09:19:56;9.07;;;4.68;;
10440;SDS011;5268;49.346;9.522;2022-10-30T09:24:59;10.85;;;5.40;;
10440;SDS011;5268;49.346;9.522;2022-10-30T09:30:02;8.57;;;4.95;;
10440;SDS011;5268;49.346;9.522;2022-10-30T09:35:05;9.40;;;5.22;;
10440;SDS011;5268;49.346;9.522;2022-10-30T09:40:09;8.80;;;4.80;;
10440;SDS011;5268;49.346;9.522;2022-10-30T09:45:25;11.57;;;5.40;;
10440;SDS011;5268;49.346;9.522;2022-10-30T09:51:04;9.05;;;4.60;;
10440;SDS011;5268;49.346;9.522;2022-10-30T09:56:22;8.57;;;5.00;;
10440;SDS011;5268;49.346;9.522;2022-10-30T10:01:29;9.27;;;5.20;;
10440;SDS011;5268;49.346;9.522;2022-10-30T10:06:39;7.53;;;4.60;;
10440;SDS011;5268;49.346;9.522;2022-10-30T10:11:46;9.90;;;4.68;;
10440;SDS011;5268;49.346;9.522;2022-10-30T10:16:54;8.93;;;4.68;;
10440;SDS011;5268;49.346;9.522;2022-10-30T10:21:58;10.00;;;4.28;;
10440;SDS011;5268;49.346;9.522;2022-10-30T10:27:04;8.23;;;4.30;;
10440;SDS011;5268;49.346;9.522;2022-10-30T10:32:26;9.38;;;4.63;;
10440;SDS011;5268;49.346;9.522;2022-10-30T10:37:46;11.70;;;4.57;;
10440;SDS011;5268;49.346;9.522;2022-10-30T10:42:58;10.52;;;4.45;;
10440;SDS011;5268;49.346;9.522;2022-10-30T10:53:43;9.10;;;4.43;;
10440;SDS011;5268;49.346;9.522;2022-10-30T10:58:50;8.43;;;3.97;;
10440;SDS011;5268;49.346;9.522;2022-10-30T11:03:56;10.48;;;4.00;;
10440;SDS011;5268;49.346;9.522;2022-10-30T11:09:10;8.82;;;3.80;;
10440;SDS011;5268;49.346;9.522;2022-10-30T11:14:17;8.85;;;3.60;;
10440;SDS011;5268;49.346;9.522;2022-10-30T11:19:21;11.20;;;4.20;;
10440;SDS011;5268;49.346;9.522;2022-10-30T11:24:28;6.70;;;3.50;;
10440;SDS011;5268;49.346;9.522;2022-10-30T11:29:32;10.80;;;4.43;;
10440;SDS011;5268;49.346;9.522;2022-10-30T11:34:35;11.90;;;3.90;;
10440;SDS011;5268;49.346;9.522;2022-10-30T11:39:37;11.00;;;3.90;;
10440;SDS011;5268;49.346;9.522;2022-10-30T11:44:41;10.73;;;3.45;;
10440;SDS011;5268;49.346;9.522;2022-10-30T11:49:46;10.13;;;3.45;;
10440;SDS011;5268;49.346;9.522;2022-10-30T11:54:49;8.55;;;3.42;;
10440;SDS011;5268;49.346;9.522;2022-10-30T11:59:54;10.52;;;3.80;;
10440;SDS011;5268;49.346;9.522;2022-10-30T12:04:59;9.85;;;3.83;;
10440;SDS011;5268;49.346;9.522;2022-10-30T12:10:02;10.57;;;3.70;;
10440;SDS011;5268;49.346;9.522;2022-10-30T12:15:10;8.93;;;4.10;;
10440;SDS011;5268;49.346;9.522;2022-10-30T12:20:20;6.97;;;3.67;;
10440;SDS011;5268;49.346;9.522;2022-10-30T12:25:24;10.88;;;6.43;;
10440;SDS011;5268;49.346;9.522;2022-10-30T12:30:31;8.30;;;3.38;;
10440;SDS011;5268;49.346;9.522;2022-10-30T12:35:39;11.40;;;3.60;;
10440;SDS011;5268;49.346;9.522;2022-10-30T12:40:45;8.85;;;3.58;;
10440;SDS011;5268;49.346;9.522;2022-10-30T12:46:00;8.18;;;3.53;;
10440;SDS011;5268;49.346;9.522;2022-10-30T12:51:16;7.68;;;3.42;;
10440;SDS011;5268;49.346;9.522;2022-10-30T12:56:23;8.95;;;3.60;;
10440;SDS011;5268;49.346;9.522;2022-10-30T13:01:32;6.35;;;3.22;;
10440;SDS011;5268;49.346;9.522;2022-10-30T13:06:36;8.77;;;3.15;;
10440;SDS011;5268;49.346;9.522;2022-10-30T13:11:47;8.23;;;3.25;;
10440;SDS011;5268;49.346;9.522;2022-10-30T13:16:55;10.55;;;3.55;;
10440;SDS011;5268;49.346;9.522;2022-10-30T13:21:58;7.60;;;3.15;;
10440;SDS011;5268;49.346;9.522;2022-10-30T13:27:08;7.10;;;3.33;;
10440;SDS011;5268;49.346;9.522;2022-10-30T13:32:21;7.82;;;3.40;;
10440;SDS011;5268;49.346;9.522;2022-10-30T13:37:29;8.60;;;3.13;;
10440;SDS011;5268;49.346;9.522;2022-10-30T13:42:40;8.07;;;3.30;;
10440;SDS011;5268;49.346;9.522;2022-10-30T13:47:54;9.57;;;3.05;;
10440;SDS011;5268;49.346;9.522;2022-10-30T13:53:04;10.80;;;3.58;;
10440;SDS011;5268;49.346;9.522;2022-10-30T13:58:15;7.88;;;3.15;;
10440;SDS011;5268;49.346;9.522;2022-10-30T14:03:36;7.35;;;3.30;;
10440;SDS011;5268;49.346;9.522;2022-10-30T14:08:45;8.43;;;3.20;;
10440;SDS011;5268;49.346;9.522;2022-10-30T14:13:53;7.13;;;3.25;;
10440;SDS011;5268;49.346;9.522;2022-10-30T14:19:01;9.77;;;3.25;;
10440;SDS011;5268;49.346;9.522;2022-10-30T14:24:04;11.55;;;3.25;;
10440;SDS011;5268;49.346;9.522;2022-10-30T14:29:36;8.05;;;3.08;;
10440;SDS011;5268;49.346;9.522;2022-10-30T14:34:56;6.88;;;3.30;;
10440;SDS011;5268;49.346;9.522;2022-10-30T14:39:58;4.85;;;3.08;;
10440;SDS011;5268;49.346;9.522;2022-10-30T14:45:37;7.22;;;2.83;;
10440;SDS011;5268;49.346;9.522;2022-10-30T14:50:51;10.00;;;3.00;;
10440;SDS011;5268;49.346;9.522;2022-10-30T14:56:04;7.03;;;2.60;;
10440;SDS011;5268;49.346;9.522;2022-10-30T15:01:24;7.55;;;3.13;;
10440;SDS011;5268;49.346;9.522;2022-10-30T15:06:35;7.30;;;3.28;;
10440;SDS011;5268;49.346;9.522;2022-10-30T15:11:48;6.40;;;2.95;;
10440;SDS011;5268;49.346;9.522;2022-10-30T15:17:21;8.40;;;2.90;;
10440;SDS011;5268;49.346;9.522;2022-10-30T15:22:29;11.07;;;3.67;;
10440;SDS011;5268;49.346;9.522;2022-10-30T15:27:32;7.80;;;3.20;;
10440;SDS011;5268;49.346;9.522;2022-10-30T15:32:39;9.75;;;3.03;;
10440;SDS011;5268;49.346;9.522;2022-10-30T15:37:56;10.60;;;3.35;;
10440;SDS011;5268;49.346;9.522;2022-10-30T15:42:59;6.18;;;2.97;;
10440;SDS011;5268;49.346;9.522;2022-10-30T15:48:04;7.18;;;2.95;;
10440;SDS011;5268;49.346;9.522;2022-10-30T15:53:15;8.20;;;3.22;;
10440;SDS011;5268;49.346;9.522;2022-10-30T15:58:19;7.32;;;3.05;;
10440;SDS011;5268;49.346;9.522;2022-10-30T16:03:23;6.00;;;2.80;;
10440;SDS011;5268;49.346;9.522;2022-10-30T16:08:26;6.75;;;3.05;;
10440;SDS011;5268;49.346;9.522;2022-10-30T16:13:29;7.65;;;3.30;;
10440;SDS011;5268;49.346;9.522;2022-10-30T16:18:31;5.85;;;2.83;;
10440;SDS011;5268;49.346;9.522;2022-10-30T16:23:37;7.60;;;3.20;;
10440;SDS011;5268;49.346;9.522;2022-10-30T16:28:45;9.43;;;3.10;;
10440;SDS011;5268;49.346;9.522;2022-10-30T16:33:47;7.93;;;3.60;;
10440;SDS011;5268;49.346;9.522;2022-10-30T16:38:51;7.38;;;4.00;;
10440;SDS011;5268;49.346;9.522;2022-10-30T16:49:20;7.82;;;3.50;;
10440;SDS011;5268;49.346;9.522;2022-10-30T16:54:27;9.20;;;3.25;;
10440;SDS011;5268;49.346;9.522;2022-10-30T16:59:34;6.60;;;3.08;;
10440;SDS011;5268;49.346;9.522;2022-10-30T17:04:39;6.93;;;3.10;;
10440;SDS011;5268;49.346;9.522;2022-10-30T17:09:46;8.60;;;3.20;;
10440;SDS011;5268;49.346;9.522;2022-10-30T17:14:50;7.88;;;4.03;;
10440;SDS011;5268;49.346;9.522;2022-10-30T17:19:56;8.98;;;3.38;;
10440;SDS011;5268;49.346;9.522;2022-10-30T17:25:14;7.80;;;3.50;;
10440;SDS011;5268;49.346;9.522;2022-10-30T17:30:30;8.48;;;3.65;;
10440;SDS011;5268;49.346;9.522;2022-10-30T17:35:34;9.98;;;4.28;;
10440;SDS011;5268;49.346;9.522;2022-10-30T17:40:37;8.77;;;4.03;;
10440;SDS011;5268;49.346;9.522;2022-10-30T17:45:39;7.47;;;3.50;;
10440;SDS011;5268;49.346;9.522;2022-10-30T17:50:42;9.23;;;3.78;;
10440;SDS011;5268;49.346;9.522;2022-10-30T17:55:46;9.10;;;3.60;;
10440;SDS011;5268;49.346;9.522;2022-10-30T18:00:49;11.13;;;4.90;;
10440;SDS011;5268;49.346;9.522;2022-10-30T18:05:52;8.18;;;3.88;;
10440;SDS011;5268;49.346;9.522;2022-10-30T18:10:56;8.23;;;3.65;;
10440;SDS011;5268;49.346;9.522;2022-10-30T18:15:58;8.98;;;3.80;;
10440;SDS011;5268;49.346;9.522;2022-10-30T18:21:00;7.35;;;4.10;;
10440;SDS011;5268;49.346;9.522;2022-10-30T18:26:03;6.57;;;3.83;;
10440;SDS011;5268;49.346;9.522;2022-10-30T18:31:07;8.70;;;4.82;;
10440;SDS011;5268;49.346;9.522;2022-10-30T18:36:12;8.65;;;4.78;;
10440;SDS011;5268;49.346;9.522;2022-10-30T18:41:18;8.45;;;4.97;;
10440;SDS011;5268;49.346;9.522;2022-10-30T18:46:23;9.90;;;6.35;;
10440;SDS011;5268;49.346;9.522;2022-10-30T18:51:25;14.00;;;7.50;;
10440;SDS011;5268;49.346;9.522;2022-10-30T18:56:30;16.10;;;8.25;;
10440;SDS011;5268;49.346;9.522;2022-10-30T19:01:32;8.52;;;5.32;;
10440;SDS011;5268;49.346;9.522;2022-10-30T19:06:35;8.55;;;4.50;;
10440;SDS011;5268;49.346;9.522;2022-10-30T19:11:39;6.47;;;4.38;;
10440;SDS011;5268;49.346;9.522;2022-10-30T19:16:41;10.50;;;4.18;;
10440;SDS011;5268;49.346;9.522;2022-10-30T19:21:43;7.65;;;4.40;;
10440;SDS011;5268;49.346;9.522;2022-10-30T19:26:46;6.07;;;4.13;;
10440;SDS011;5268;49.346;9.522;2022-10-30T19:31:48;9.00;;;4.25;;
10440;SDS011;5268;49.346;9.522;2022-10-30T19:36:50;7.28;;;4.13;;
10440;SDS011;5268;49.346;9.522;2022-10-30T19:41:54;10.75;;;6.03;;
10440;SDS011;5268;49.346;9.522;2022-10-30T19:46:56;12.27;;;5.78;;
10440;SDS011;5268;49.346;9.522;2022-10-30T19:51:58;7.85;;;5.05;;
10440;SDS011;5268;49.346;9.522;2022-10-30T19:57:01;10.50;;;4.22;;
10440;SDS011;5268;49.346;9.522;2022-10-30T20:02:03;10.60;;;4.47;;
10440;SDS011;5268;49.346;9.522;2022-10-30T20:07:07;6.30;;;4.55;;
10440;SDS011;5268;49.346;9.522;2022-10-30T20:12:11;8.85;;;4.90;;
10440;SDS011;5268;49.346;9.522;2022-10-30T20:17:12;8.20;;;4.78;;
10440;SDS011;5268;49.346;9.522;2022-10-30T20:22:15;11.85;;;4.82;;
10440;SDS011;5268;49.346;9.522;2022-10-30T20:27:18;6.82;;;4.50;;
10440;SDS011;5268;49.346;9.522;2022-10-30T20:32:20;8.30;;;4.57;;
10440;SDS011;5268;49.346;9.522;2022-10-30T20:37:22;6.88;;;4.07;;
10440;SDS011;5268;49.346;9.522;2022-10-30T20:42:26;8.13;;;4.45;;
10440;SDS011;5268;49.346;9.522;2022-10-30T20:47:28;7.18;;;4.60;;
10440;SDS011;5268;49.346;9.522;2022-10-30T20:52:30;7.82;;;4.50;;
10440;SDS011;5268;49.346;9.522;2022-10-30T20:57:41;9.20;;;4.38;;
10440;SDS011;5268;49.346;9.522;2022-10-30T21:02:43;6.50;;;4.50;;
10440;SDS011;5268;49.346;9.522;2022-10-30T21:07:45;7.40;;;4.20;;
10440;SDS011;5268;49.346;9.522;2022-10-30T21:12:48;7.18;;;4.30;;
10440;SDS011;5268;49.346;9.522;2022-10-30T21:17:50;8.98;;;4.72;;
10440;SDS011;5268;49.346;9.522;2022-10-30T21:22:52;6.47;;;4.38;;
10440;SDS011;5268;49.346;9.522;2022-10-30T21:27:56;8.32;;;4.53;;
10440;SDS011;5268;49.346;9.522;2022-10-30T21:32:58;9.18;;;5.03;;
10440;SDS011;5268;49.346;9.522;2022-10-30T21:38:00;6.20;;;4.10;;
10440;SDS011;5268;49.346;9.522;2022-10-30T21:43:03;9.73;;;4.18;;
10440;SDS011;5268;49.346;9.522;2022-10-30T21:48:06;7.97;;;4.15;;
10440;SDS011;5268;49.346;9.522;2022-10-30T21:53:08;8.70;;;4.53;;
10440;SDS011;5268;49.346;9.522;2022-10-30T21:58:12;7.93;;;4.50;;
10440;SDS011;5268;49.346;9.522;2022-10-30T22:03:14;7.63;;;4.30;;
10440;SDS011;5268;49.346;9.522;2022-10-30T22:08:16;9.85;;;5.47;;
10440;SDS011;5268;49.346;9.522;2022-10-30T22:13:19;7.00;;;4.10;;
10440;SDS011;5268;49.346;9.522;2022-10-30T22:18:21;6.32;;;4.10;;
10440;SDS011;5268;49.346;9.522;2022-10-30T22:23:23;6.82;;;4.05;;
10440;SDS011;5268;49.346;9.522;2022-10-30T22:28:26;7.35;;;4.60;;
